Hobart Regional Airport
KHBR : now visible

Airfield :











YOU CAN JOIN US ON...

 
LOGIN :

Register | Disclaimer

   EN    FR    IT 

 









Legend :    VFR   Marginal VFR   IFR   Intensive IFR   Very Intensive IFR
Visi :
Ceiling :
>= 8 km
>= 3000ft
5 to 8 km
1000 to 3000 ft
1500m to 5 km
500 to 1000 ft
800 to 1500m
200 to 500 ft
< 800m
< 200 ft
Symbols :   Thunderstorms  Fog  Heavy snow  Heavy precipitations  Wind > 20 kt






- Airport Elevation : 1563 ft


KHBR - Hobart Regional

CURRENT METAR :
  • 190053Z AUTO 07007KT 10SM SCT080 BKN120 09/00 A3005 RMK AO2 SLP181 T00940000

EXPIRED METARs :
  • 182353Z AUTO 06008KT 10SM CLR 11/M01 A3000 RMK AO2 SLP163 T01061011 10150 20106 51029
  • 182253Z AUTO 04014G21KT 10SM CLR 13/M02 A2997 RMK AO2 PK WND 04026/2213 SLP152 T01281022

Expired Forecast.
KZFW FIR / North America



MET'MAP, your aeronautical weather chart ! - Copyright ORBIFLY December 2007 - Disclaimer

ORBIFLY MET'MAP TEAM :

Programming & Development : Alexandra Zaïnal
Concept & original design : Baudouin d'Aumeries
Assistance for programming : Marc-Olivier Méhu
Technical & hardware support : Manuel Goepfert

Contact : metmap@orbifly.com




SOURCES & CREDITS :

   NOAA       Earth
Advisory